Terminal Aerodrome Forecast
Issued by NWS

Home | Current Version | Previous Version | Graphics & Text | Print | Product List | Glossary On
Versions: 1 2 3 4 5 6 7 8 9 10 11 12 13 14 15 16 17 18 19 20 21 22
000
FTUS43 KMPX 231724
TAFRWF
TAF
KRWF 231724Z 2318/2418 21013KT P6SM VCSH SCT025 BKN040
      TEMPO 2319/2322 BKN025
     FM240100 19007KT P6SM SCT035 BKN200=

USA.gov is the U.S. government's official web portal to all federal, state and local government web resources and services.